PWSweather.com
Personal Weather Stations
Station Observations
PHMDWX
Perry Hall, MD 21236

Perry Hall, MD 21236

Lat: 39.418318, Lon: -76.490039

Elevation: 305

Station Type: Davis Vantage Pro

Latest ConditionsUpdated 11:00:03 AM EST Wednesday, Dec 7, 2016
Currently Today's Max Today's Min Today's Average
Temperature 48.8°F9.3°C 48.8°F9.3°C 39.9°F4.4°C 41.5°F5.3°C
Dew Point 41.6°F5.3°C 43.0°F6.1°C 39.1°F3.9°C 40.4°F4.7°C
Winds 0.7 mph N1.1 kmh N 5.4 mph N8.7 kmh N - 1.4 mph 2.3 kmh
Wind Gusts 10.0 mph16.1 kmh 10.0 mph16.1 kmh - -
Humidity 76% 98% 76% 96%
Pressure 29.99 in1015.6 mb 30.01 in1016.3 mb 29.79 in1008.8 mb -
Precipitation - 0.02 in0.5 mm - -
Hour Temp Dew Point Humidity Winds Wind Gusts Pressure Precip Precip Rate Daily Precip Total
11:00 AM 48.8°F9.3°C 41.6°F5.3°C 76% 0.7 mph N1.1 kmh N 10.0 mph16.1 kmh 29.99 in1015.6 mb - 0.00 in0.0 mm 0.02 in0.5 mm
10:30 AM 47.0°F8.3°C 43.0°F6.1°C 86% 5.4 mph N8.7 kmh N 8.0 mph12.9 kmh 30.00 in1015.9 mb - 0.00 in0.0 mm 0.02 in0.5 mm
10:00 AM 43.5°F6.4°C 41.6°F5.3°C 93% 2.3 mph NW3.7 kmh NW 6.0 mph9.7 kmh 30.01 in1016.3 mb - 0.00 in0.0 mm 0.02 in0.5 mm
09:30 AM 41.8°F5.4°C 41.0°F5.0°C 97% 0.7 mph WNW1.1 kmh WNW 1.0 mph1.6 kmh 30.00 in1015.9 mb - 0.00 in0.0 mm 0.02 in0.5 mm
09:00 AM 40.9°F4.9°C 40.1°F4.5°C 97% 0.9 mph NW1.4 kmh NW 3.0 mph4.8 kmh 29.99 in1015.6 mb - 0.00 in0.0 mm 0.02 in0.5 mm
08:30 AM 40.2°F4.6°C 39.4°F4.1°C 97% 1.1 mph NW1.8 kmh NW 3.0 mph4.8 kmh 29.98 in1015.2 mb - 0.00 in0.0 mm 0.02 in0.5 mm
08:00 AM 39.9°F4.4°C 39.1°F3.9°C 97% 0.1 mph NW0.2 kmh NW 1.0 mph1.6 kmh 29.97 in1014.9 mb - 0.00 in0.0 mm 0.02 in0.5 mm
07:30 AM 40.1°F4.5°C 39.3°F4.1°C 97% 0.2 mph NW0.3 kmh NW 1.0 mph1.6 kmh 29.96 in1014.6 mb - 0.00 in0.0 mm 0.02 in0.5 mm
07:00 AM 40.1°F4.5°C 39.3°F4.1°C 97% 0.7 mph NW1.1 kmh NW 2.0 mph3.2 kmh 29.95 in1014.2 mb - 0.00 in0.0 mm 0.02 in0.5 mm
06:30 AM 40.1°F4.5°C 39.6°F4.2°C 98% Calm Calm 1.0 mph1.6 kmh 29.94 in1013.9 mb - 0.00 in0.0 mm 0.02 in0.5 mm
06:00 AM 40.1°F4.5°C 39.6°F4.2°C 98% 0.1 mph NW0.2 kmh NW -- 29.92 in1013.2 mb - 0.00 in0.0 mm 0.02 in0.5 mm
05:30 AM 40.2°F4.6°C 39.7°F4.3°C 98% 0.3 mph WNW0.5 kmh WNW 1.0 mph1.6 kmh 29.91 in1012.9 mb - 0.00 in0.0 mm 0.02 in0.5 mm
05:00 AM 40.4°F4.7°C 39.9°F4.4°C 98% 3.1 mph NNW5.0 kmh NNW 6.0 mph9.7 kmh 29.89 in1012.2 mb - 0.00 in0.0 mm 0.02 in0.5 mm
04:30 AM 40.8°F4.9°C 40.3°F4.6°C 98% 2.4 mph NW3.9 kmh NW 3.0 mph4.8 kmh 29.89 in1012.2 mb - 0.00 in0.0 mm 0.02 in0.5 mm
04:00 AM 40.8°F4.9°C 40.3°F4.6°C 98% 1.3 mph WSW2.1 kmh WSW 6.0 mph9.7 kmh 29.88 in1011.9 mb - 0.00 in0.0 mm 0.02 in0.5 mm
03:30 AM 40.9°F4.9°C 40.4°F4.7°C 98% 4.0 mph WNW6.4 kmh WNW 7.0 mph11.3 kmh 29.87 in1011.5 mb - 0.00 in0.0 mm 0.02 in0.5 mm
03:00 AM 41.1°F5.1°C 40.6°F4.8°C 98% 0.6 mph NW1.0 kmh NW 2.0 mph3.2 kmh 29.85 in1010.8 mb - 0.00 in0.0 mm 0.02 in0.5 mm
02:30 AM 41.3°F5.2°C 40.8°F4.9°C 98% 1.0 mph WNW1.6 kmh WNW 2.0 mph3.2 kmh 29.85 in1010.8 mb - 0.00 in0.0 mm 0.02 in0.5 mm
02:00 AM 41.2°F5.1°C 40.7°F4.8°C 98% 1.6 mph WNW2.6 kmh WNW 5.0 mph8.0 kmh 29.85 in1010.8 mb - 0.00 in0.0 mm 0.02 in0.5 mm
01:30 AM 41.2°F5.1°C 40.7°F4.8°C 98% 0.3 mph NW0.5 kmh NW 5.0 mph8.0 kmh 29.81 in1009.5 mb - 0.00 in0.0 mm 0.02 in0.5 mm
01:00 AM 41.3°F5.2°C 40.8°F4.9°C 98% 2.6 mph NNW4.2 kmh NNW 5.0 mph8.0 kmh 29.79 in1008.8 mb - 0.02 in0.5 mm 0.02 in0.5 mm
12:30 AM 41.3°F5.2°C 40.8°F4.9°C 98% 1.9 mph NW3.1 kmh NW 3.0 mph4.8 kmh 29.80 in1009.1 mb - 0.00 in0.0 mm 0.01 in0.3 mm
12:00 AM 41.6°F5.3°C 41.1°F5.1°C 98% 0.4 mph 0.6 kmh 1.0 mph1.6 kmh 29.80 in1009.1 mb - 0.01 in0.3 mm 0.01 in0.3 mm